createdAt,value
2022-12-23T00:00:10.588Z,18.98
2022-12-23T00:03:17.574Z,19.00
2022-12-23T00:06:22.445Z,40.67
2022-12-23T00:09:25.520Z,47.47
2022-12-23T00:12:46.981Z,25.75
2022-12-23T00:15:50.660Z,27.20
2022-12-23T00:18:55.151Z,48.00
2022-12-23T00:21:59.089Z,51.92
2022-12-23T00:25:02.805Z,60.67
2022-12-23T00:28:06.017Z,56.70
2022-12-23T00:31:11.532Z,47.58
2022-12-23T00:34:15.737Z,51.20
2022-12-23T00:37:19.497Z,34.83
2022-12-23T00:40:42.001Z,51.83
2022-12-23T00:43:45.897Z,50.47
2022-12-23T00:47:08.382Z,61.00
2022-12-23T00:50:12.373Z,62.72
2022-12-23T00:53:16.415Z,47.53
2022-12-23T00:56:19.405Z,59.88
2022-12-23T00:59:23.502Z,50.13
2022-12-23T01:02:45.729Z,57.30
2022-12-23T01:05:49.850Z,52.33
2022-12-23T01:08:52.741Z,50.40
2022-12-23T01:11:56.189Z,53.60
2022-12-23T01:15:00.123Z,80.50
2022-12-23T01:18:03.299Z,71.75
2022-12-23T01:21:08.295Z,52.88
2022-12-23T01:24:29.931Z,67.78
2022-12-23T01:27:33.101Z,38.45
2022-12-23T01:30:39.118Z,43.63
2022-12-23T01:33:42.696Z,45.13
2022-12-23T01:36:46.642Z,41.30
2022-12-23T01:39:50.326Z,26.10
2022-12-23T01:42:54.219Z,34.35
2022-12-23T01:45:57.766Z,34.15
2022-12-23T01:49:01.899Z,26.35
2022-12-23T01:52:24.520Z,43.88
2022-12-23T01:55:31.668Z,26.63
2022-12-23T01:58:55.913Z,18.10
2022-12-23T02:02:20.213Z,41.07
2022-12-23T02:05:25.206Z,47.08
2022-12-23T02:08:49.113Z,35.63
2022-12-23T02:12:29.059Z,25.13
2022-12-23T02:16:01.801Z,37.78
2022-12-23T02:19:12.736Z,38.13
2022-12-23T02:22:30.593Z,41.75
2022-12-23T02:25:37.236Z,30.48
2022-12-23T02:29:00.601Z,31.33
2022-12-23T02:32:22.359Z,54.90
2022-12-23T02:35:49.650Z,28.70
2022-12-23T02:39:05.760Z,34.15
2022-12-23T02:42:15.550Z,26.67
2022-12-23T02:45:23.972Z,31.77
2022-12-23T02:48:36.345Z,37.35
2022-12-23T02:51:45.697Z,44.13
2022-12-23T02:54:57.267Z,25.70
2022-12-23T02:58:06.350Z,29.08
2022-12-23T03:01:12.325Z,40.22
2022-12-23T03:04:16.558Z,27.73
2022-12-23T03:07:31.029Z,26.60
2022-12-23T03:11:03.700Z,30.90
2022-12-23T03:14:25.989Z,45.55
2022-12-23T03:18:00.180Z,46.90
2022-12-23T03:21:13.899Z,41.28
2022-12-23T03:24:29.561Z,53.05
2022-12-23T03:28:17.468Z,54.53
2022-12-23T03:31:27.061Z,35.63
2022-12-23T03:34:36.508Z,68.63
2022-12-23T03:37:44.720Z,54.55
2022-12-23T03:40:56.862Z,41.23
2022-12-23T03:44:23.146Z,43.15
2022-12-23T03:47:32.055Z,31.33
2022-12-23T03:50:36.778Z,16.47
2022-12-23T03:54:02.441Z,30.13
2022-12-23T03:57:08.629Z,22.60
2022-12-23T04:00:34.758Z,35.58
2022-12-23T04:03:48.356Z,31.75
2022-12-23T04:07:10.730Z,15.57
2022-12-23T04:10:15.932Z,18.10
2022-12-23T04:13:19.743Z,25.67
2022-12-23T04:16:24.379Z,25.55
2022-12-23T04:19:28.609Z,25.42
2022-12-23T04:22:32.461Z,24.33
2022-12-23T04:25:36.303Z,20.67
2022-12-23T04:28:40.202Z,12.70
2022-12-23T04:31:44.004Z,16.30
2022-12-23T04:35:06.977Z,18.27
2022-12-23T04:38:10.654Z,18.85
2022-12-23T04:41:32.984Z,15.05
2022-12-23T04:44:35.954Z,11.60
2022-12-23T04:47:39.435Z,10.93
2022-12-23T04:50:42.671Z,11.02
2022-12-23T04:53:45.954Z,10.43
2022-12-23T04:56:48.802Z,19.38
2022-12-23T04:59:52.525Z,13.90
2022-12-23T05:02:56.287Z,12.80
2022-12-23T05:06:00.551Z,14.60
2022-12-23T05:09:05.178Z,17.88
2022-12-23T05:12:09.092Z,13.05
2022-12-23T05:15:12.629Z,11.70
2022-12-23T05:18:34.367Z,16.08
2022-12-23T05:21:37.281Z,7.15
2022-12-23T05:24:40.843Z,11.53
2022-12-23T05:27:44.112Z,22.30
2022-12-23T05:30:47.732Z,17.85
2022-12-23T05:33:51.503Z,13.23
2022-12-23T05:36:54.972Z,12.63
2022-12-23T05:39:58.767Z,8.40
2022-12-23T05:43:02.874Z,8.23
2022-12-23T05:46:06.079Z,5.80
2022-12-23T05:49:10.345Z,12.82
2022-12-23T05:52:14.097Z,4.43
2022-12-23T05:55:18.314Z,7.40
2022-12-23T05:58:21.167Z,6.70
2022-12-23T06:01:24.585Z,9.82
2022-12-23T06:04:27.620Z,8.07
2022-12-23T06:07:30.582Z,14.10
2022-12-23T06:10:34.192Z,6.03
2022-12-23T06:13:37.929Z,28.48
2022-12-23T06:16:41.137Z,18.47
2022-12-23T06:20:04.280Z,5.93
2022-12-23T06:23:26.512Z,12.90
2022-12-23T06:26:30.202Z,10.90
2022-12-23T06:29:33.775Z,6.80
2022-12-23T06:33:13.891Z,6.05
2022-12-23T06:36:17.493Z,4.07
2022-12-23T06:39:39.777Z,13.27
2022-12-23T06:42:43.422Z,8.27
2022-12-23T06:45:49.262Z,11.32
2022-12-23T06:48:52.971Z,18.33
2022-12-23T06:51:57.294Z,13.10
2022-12-23T06:55:01.792Z,14.27
2022-12-23T06:58:06.545Z,8.20
2022-12-23T07:01:10.507Z,14.43
2022-12-23T07:04:33.129Z,6.15
2022-12-23T07:07:36.623Z,7.97
2022-12-23T07:10:40.716Z,16.27
2022-12-23T07:13:43.816Z,13.23
2022-12-23T07:16:47.272Z,10.35
2022-12-23T07:19:50.326Z,6.00
2022-12-23T07:22:56.132Z,7.63
2022-12-23T07:25:59.246Z,9.20
2022-12-23T07:29:03.083Z,13.37
2022-12-23T07:32:07.256Z,7.57
2022-12-23T07:35:11.083Z,29.23
2022-12-23T07:38:32.963Z,17.52
2022-12-23T07:42:16.522Z,4.57
2022-12-23T07:45:18.121Z,17.30
2022-12-23T07:48:21.165Z,12.23
2022-12-23T07:51:24.675Z,26.27
2022-12-23T07:54:27.800Z,12.13
2022-12-23T07:57:38.166Z,12.35
2022-12-23T08:00:42.446Z,20.53
2022-12-23T08:04:03.994Z,6.07
2022-12-23T08:07:06.904Z,10.98
2022-12-23T08:10:10.704Z,15.40
2022-12-23T08:13:13.668Z,8.95
2022-12-23T08:16:17.298Z,17.10
2022-12-23T08:19:20.536Z,13.82
2022-12-23T08:22:43.297Z,13.37
2022-12-23T08:25:46.904Z,22.33
2022-12-23T08:28:54.413Z,12.40
2022-12-23T08:31:58.060Z,19.30
2022-12-23T08:35:46.269Z,23.20
2022-12-23T08:39:07.819Z,25.02
2022-12-23T08:42:11.169Z,17.52
2022-12-23T08:45:14.207Z,51.90
2022-12-23T08:48:17.456Z,55.00
2022-12-23T08:51:25.380Z,54.95
2022-12-23T08:54:29.900Z,26.90
2022-12-23T08:57:33.134Z,17.70
2022-12-23T09:00:37.445Z,35.63
2022-12-23T09:03:41.075Z,27.87
2022-12-23T09:06:47.791Z,15.43
2022-12-23T09:09:53.919Z,37.78
2022-12-23T09:12:58.344Z,43.08
2022-12-23T09:16:01.363Z,28.73
2022-12-23T09:19:06.052Z,31.70
2022-12-23T09:22:10.627Z,18.15
2022-12-23T09:25:15.722Z,42.47
2022-12-23T09:28:19.247Z,32.92
2022-12-23T09:31:23.880Z,44.00
2022-12-23T09:34:27.389Z,58.00
2022-12-23T09:37:31.617Z,38.65
2022-12-23T09:40:37.711Z,42.67
2022-12-23T09:43:50.074Z,20.90
2022-12-23T09:46:57.789Z,37.88
2022-12-23T09:50:07.203Z,33.55
2022-12-23T09:53:41.443Z,32.03
2022-12-23T09:56:59.670Z,40.70
2022-12-23T10:00:05.285Z,40.92
2022-12-23T10:03:14.620Z,20.75
2022-12-23T10:06:26.183Z,32.47
2022-12-23T10:09:32.883Z,12.73
2022-12-23T10:12:41.611Z,24.08
2022-12-23T10:16:06.059Z,22.45
2022-12-23T10:19:13.554Z,20.42
2022-12-23T10:22:43.052Z,21.42
2022-12-23T10:25:56.271Z,35.40
2022-12-23T10:29:20.001Z,52.13
2022-12-23T10:32:35.041Z,21.83
2022-12-23T10:36:03.108Z,34.33
2022-12-23T10:39:21.723Z,23.60
2022-12-23T10:42:43.824Z,22.85
2022-12-23T10:46:17.364Z,22.13
2022-12-23T10:49:55.924Z,38.53
2022-12-23T10:53:03.929Z,23.85
2022-12-23T10:56:09.366Z,20.98
2022-12-23T10:59:18.453Z,33.05
2022-12-23T11:03:00.432Z,40.60
2022-12-23T11:06:05.437Z,44.50
2022-12-23T11:09:17.737Z,62.08
2022-12-23T11:12:26.145Z,57.00
2022-12-23T11:15:42.350Z,36.17
2022-12-23T11:18:59.989Z,29.23
2022-12-23T11:22:04.195Z,25.50
2022-12-23T11:25:41.511Z,25.65
2022-12-23T11:28:58.525Z,20.90
2022-12-23T11:32:03.837Z,23.48
2022-12-23T11:35:33.776Z,47.67
2022-12-23T11:38:48.310Z,51.15
2022-12-23T11:41:55.577Z,30.45
2022-12-23T11:45:03.360Z,22.37
2022-12-23T11:48:27.065Z,44.10
2022-12-23T11:51:30.938Z,28.83
2022-12-23T11:55:04.356Z,36.30
2022-12-23T11:58:19.373Z,38.20
2022-12-23T12:01:25.945Z,28.25
2022-12-23T12:04:33.123Z,32.08
2022-12-23T12:07:37.377Z,26.73
2022-12-23T12:10:42.549Z,30.17
2022-12-23T12:14:14.332Z,33.20
2022-12-23T12:17:26.757Z,30.33
2022-12-23T12:20:37.633Z,26.75
2022-12-23T12:23:48.964Z,28.80
2022-12-23T12:26:58.000Z,32.08
2022-12-23T12:30:08.691Z,48.92
2022-12-23T12:33:57.353Z,56.67
2022-12-23T12:37:03.214Z,72.93
2022-12-23T12:40:44.416Z,57.70
2022-12-23T12:44:21.171Z,101.15
2022-12-23T12:47:57.029Z,88.00
2022-12-23T12:51:14.872Z,71.97
2022-12-23T12:55:05.020Z,53.95
2022-12-23T12:58:19.212Z,59.85
2022-12-23T13:01:50.852Z,91.38
2022-12-23T13:04:57.533Z,67.53
2022-12-23T13:08:22.815Z,100.47
2022-12-23T13:11:35.195Z,99.70
2022-12-23T13:14:47.065Z,76.97
2022-12-23T13:18:28.569Z,97.70
2022-12-23T13:21:54.503Z,100.75
2022-12-23T13:25:19.287Z,74.23
2022-12-23T13:28:49.243Z,87.82
2022-12-23T13:32:15.542Z,102.90
2022-12-23T13:35:42.707Z,75.25
2022-12-23T13:39:05.119Z,48.83
2022-12-23T13:42:29.979Z,102.40
2022-12-23T13:45:53.515Z,86.07
2022-12-23T13:49:12.042Z,50.03
2022-12-23T13:52:50.782Z,60.50
2022-12-23T13:56:20.959Z,51.83
2022-12-23T13:59:24.116Z,80.50
2022-12-23T14:02:41.867Z,95.28
2022-12-23T14:05:48.311Z,97.53
2022-12-23T14:08:53.665Z,97.60
2022-12-23T14:12:02.619Z,94.18
2022-12-23T14:15:19.589Z,68.22
2022-12-23T14:18:31.740Z,152.38
2022-12-23T14:21:44.698Z,142.13
2022-12-23T14:25:27.876Z,120.57
2022-12-23T14:28:57.465Z,115.75
2022-12-23T14:32:02.163Z,75.83
2022-12-23T14:35:23.420Z,102.72
2022-12-23T14:38:32.026Z,157.43
2022-12-23T14:41:40.735Z,76.53
2022-12-23T14:45:04.712Z,100.55
2022-12-23T14:48:35.601Z,121.18
2022-12-23T14:51:41.008Z,91.70
2022-12-23T14:55:06.088Z,64.90
2022-12-23T14:58:18.607Z,67.35
2022-12-23T15:01:42.390Z,87.25
2022-12-23T15:04:54.073Z,76.73
2022-12-23T15:08:15.335Z,80.85
2022-12-23T15:11:25.292Z,79.82
2022-12-23T15:14:39.472Z,132.65
2022-12-23T15:18:02.928Z,93.22
2022-12-23T15:21:14.020Z,121.07
2022-12-23T15:24:20.776Z,92.70
2022-12-23T15:27:27.796Z,80.87
2022-12-23T15:30:37.918Z,71.82
2022-12-23T15:37:17.573Z,66.10
2022-12-23T15:40:29.808Z,89.72
2022-12-23T15:43:33.586Z,140.30
2022-12-23T15:46:41.133Z,144.20
2022-12-23T15:49:45.771Z,122.63
2022-12-23T15:52:51.158Z,104.38
2022-12-23T15:55:55.143Z,82.57
2022-12-23T15:58:59.772Z,73.90
2022-12-23T16:05:51.772Z,63.03
2022-12-23T16:08:58.455Z,70.40
2022-12-23T16:12:18.900Z,79.35
2022-12-23T16:15:31.107Z,94.03
2022-12-23T16:18:47.172Z,71.70
2022-12-23T16:21:51.785Z,93.35
2022-12-23T16:25:20.866Z,103.47
2022-12-23T16:28:28.833Z,111.53
2022-12-23T16:31:32.873Z,42.83
2022-12-23T16:34:36.974Z,49.78
2022-12-23T16:37:45.916Z,90.28
2022-12-23T16:40:55.618Z,77.67
2022-12-23T16:44:00.205Z,75.72
2022-12-23T16:47:09.287Z,66.43
2022-12-23T16:50:15.635Z,122.18
2022-12-23T16:53:19.344Z,90.60
2022-12-23T16:56:42.483Z,81.07
2022-12-23T16:59:47.704Z,71.22
2022-12-23T17:02:52.384Z,110.80
2022-12-23T17:05:56.049Z,91.43
2022-12-23T17:08:59.439Z,52.28
2022-12-23T17:12:02.555Z,77.13
2022-12-23T17:15:07.714Z,53.35
2022-12-23T17:18:29.327Z,50.72
2022-12-23T17:21:37.738Z,65.35
2022-12-23T17:24:40.647Z,61.35
2022-12-23T17:28:02.148Z,93.97
2022-12-23T17:31:12.000Z,99.45
2022-12-23T17:34:20.248Z,114.77
2022-12-23T17:37:23.476Z,69.82
2022-12-23T17:40:26.696Z,64.20
2022-12-23T17:43:29.843Z,111.70
2022-12-23T17:46:32.959Z,75.95
2022-12-23T17:49:36.164Z,88.18
2022-12-23T17:52:39.462Z,84.45
2022-12-23T17:55:42.699Z,95.38
2022-12-23T17:58:47.649Z,110.63
2022-12-23T18:02:08.964Z,78.22
2022-12-23T18:05:32.251Z,44.20
2022-12-23T18:08:36.139Z,85.65
2022-12-23T18:11:45.575Z,46.72
2022-12-23T18:14:49.258Z,43.60
2022-12-23T18:17:53.551Z,68.13
2022-12-23T18:20:58.335Z,74.82
2022-12-23T18:24:01.807Z,95.55
2022-12-23T18:27:14.250Z,84.18
2022-12-23T18:30:18.498Z,92.85
2022-12-23T18:33:21.467Z,63.35
2022-12-23T18:36:26.196Z,34.73
2022-12-23T18:39:29.551Z,56.13
2022-12-23T18:42:32.858Z,47.95
2022-12-23T18:45:54.568Z,45.93
2022-12-23T18:48:58.000Z,71.15
2022-12-23T18:52:07.908Z,63.10
2022-12-23T18:55:13.034Z,60.42
2022-12-23T18:58:18.502Z,49.67
2022-12-23T19:01:21.755Z,125.70
2022-12-23T19:04:24.617Z,130.85
2022-12-23T19:07:27.432Z,125.90
2022-12-23T19:10:50.911Z,148.75
2022-12-23T19:13:54.091Z,89.03
2022-12-23T19:17:00.381Z,68.67
2022-12-23T19:20:03.951Z,76.78
2022-12-23T19:23:07.610Z,88.10
2022-12-23T19:26:12.739Z,59.17
2022-12-23T19:29:16.327Z,64.93
2022-12-23T19:32:19.324Z,94.45
2022-12-23T19:35:22.142Z,53.67
2022-12-23T19:38:26.810Z,58.87
2022-12-23T19:41:30.979Z,54.17
2022-12-23T19:44:34.787Z,28.85
2022-12-23T19:47:58.555Z,40.33
2022-12-23T19:51:07.037Z,59.17
2022-12-23T19:54:10.472Z,62.97
2022-12-23T19:57:13.807Z,36.20
2022-12-23T20:00:17.496Z,66.63
2022-12-23T20:03:21.084Z,48.67
2022-12-23T20:06:31.792Z,75.28
2022-12-23T20:09:34.875Z,59.83
2022-12-23T20:12:38.247Z,44.15
2022-12-23T20:16:00.462Z,37.70
2022-12-23T20:19:22.039Z,31.40
2022-12-23T20:22:24.904Z,71.68
2022-12-23T20:25:28.296Z,58.28
2022-12-23T20:28:32.407Z,71.93
2022-12-23T20:31:38.425Z,49.50
2022-12-23T20:34:41.477Z,44.08
2022-12-23T20:38:03.361Z,57.08
2022-12-23T20:41:09.559Z,72.13
2022-12-23T20:47:35.903Z,70.90
2022-12-23T20:50:41.319Z,64.30
2022-12-23T20:53:45.241Z,50.35
2022-12-23T20:56:49.263Z,65.82
2022-12-23T20:59:52.857Z,81.90
2022-12-23T21:03:33.242Z,49.85
2022-12-23T21:06:36.866Z,85.38
2022-12-23T21:09:40.155Z,70.63
2022-12-23T21:13:01.885Z,63.30
2022-12-23T21:16:08.612Z,61.22
2022-12-23T21:19:22.575Z,64.40
2022-12-23T21:22:27.298Z,56.33
2022-12-23T21:25:30.202Z,75.43
2022-12-23T21:28:33.350Z,62.70
2022-12-23T21:31:38.836Z,62.42
2022-12-23T21:35:03.264Z,56.47
2022-12-23T21:38:06.812Z,72.97
2022-12-23T21:41:13.195Z,64.10
2022-12-23T21:44:16.575Z,64.90
2022-12-23T21:47:19.581Z,61.55
2022-12-23T21:50:41.080Z,72.88
2022-12-23T21:53:46.806Z,69.90
2022-12-23T21:57:09.455Z,71.35
2022-12-23T22:00:13.379Z,57.85
2022-12-23T22:03:17.660Z,51.08
2022-12-23T22:06:25.718Z,72.40
2022-12-23T22:09:29.561Z,60.75
2022-12-23T22:12:33.186Z,80.13
2022-12-23T22:15:42.121Z,96.03
2022-12-23T22:19:03.814Z,69.78
2022-12-23T22:22:07.469Z,63.80
2022-12-23T22:25:11.174Z,79.90
2022-12-23T22:28:15.220Z,65.97
2022-12-23T22:31:24.601Z,66.38
2022-12-23T22:34:29.612Z,52.13
2022-12-23T22:37:33.248Z,57.85
2022-12-23T22:40:36.428Z,58.83
2022-12-23T22:43:58.946Z,56.50
2022-12-23T22:47:21.379Z,47.07
2022-12-23T22:50:24.920Z,72.13
2022-12-23T22:53:29.995Z,43.60
2022-12-23T22:56:33.660Z,61.67
2022-12-23T22:59:37.776Z,53.00
2022-12-23T23:02:41.502Z,34.15
2022-12-23T23:05:45.211Z,46.03
2022-12-23T23:08:48.868Z,67.13
2022-12-23T23:11:52.851Z,82.80
2022-12-23T23:14:56.644Z,83.97
2022-12-23T23:18:00.607Z,60.37
2022-12-23T23:21:04.427Z,71.90
2022-12-23T23:24:09.188Z,67.10
2022-12-23T23:27:13.364Z,66.57
2022-12-23T23:30:17.436Z,61.05
2022-12-23T23:33:20.351Z,85.00
2022-12-23T23:36:23.668Z,85.30
2022-12-23T23:39:27.489Z,68.28
2022-12-23T23:42:31.593Z,89.68
2022-12-23T23:46:12.120Z,97.95
2022-12-23T23:49:16.021Z,68.70
2022-12-23T23:52:18.837Z,113.65
2022-12-23T23:55:22.174Z,85.00
2022-12-23T23:58:25.169Z,93.87
